createdAt,value
2023-04-18T00:04:26.293Z,13.78
2023-04-18T00:09:28.648Z,13.74
2023-04-18T00:14:30.891Z,13.72
2023-04-18T00:19:34.372Z,13.70
2023-04-18T00:24:36.587Z,13.68
2023-04-18T00:29:40.578Z,13.67
2023-04-18T00:34:42.675Z,13.65
2023-04-18T00:39:44.806Z,13.61
2023-04-18T00:44:47.037Z,13.63
2023-04-18T00:49:49.461Z,13.61
2023-04-18T00:54:52.051Z,13.58
2023-04-18T00:59:55.122Z,13.60
2023-04-18T01:04:58.741Z,13.58
2023-04-18T01:10:02.196Z,13.57
2023-04-18T01:15:06.722Z,13.51
2023-04-18T01:20:11.128Z,13.46
2023-04-18T01:25:15.018Z,13.41
2023-04-18T01:30:17.440Z,13.34
2023-04-18T01:35:19.881Z,13.20
2023-04-18T01:40:22.272Z,13.22
2023-04-18T01:45:25.070Z,13.22
2023-04-18T01:50:27.261Z,13.21
2023-04-18T01:55:29.225Z,13.70
2023-04-18T02:00:31.316Z,13.23
2023-04-18T02:05:33.174Z,13.67
2023-04-18T02:10:35.259Z,13.20
2023-04-18T02:15:37.661Z,13.14
2023-04-18T02:20:40.672Z,13.13
2023-04-18T02:25:42.801Z,13.09
2023-04-18T02:30:45.073Z,13.10
2023-04-18T02:35:47.281Z,13.08
2023-04-18T02:40:51.495Z,13.06
2023-04-18T02:45:53.682Z,13.03
2023-04-18T02:51:03.404Z,13.10
2023-04-18T02:56:08.052Z,13.00
2023-04-18T03:01:39.702Z,13.05
2023-04-18T03:06:48.543Z,13.03
2023-04-18T03:11:51.412Z,13.04
2023-04-18T03:16:58.774Z,13.13
2023-04-18T03:22:06.186Z,13.19
2023-04-18T03:27:11.625Z,13.27
2023-04-18T03:32:14.709Z,13.38
2023-04-18T03:37:17.020Z,13.55
2023-04-18T03:42:24.956Z,13.73
2023-04-18T03:47:26.986Z,14.47
2023-04-18T03:52:32.781Z,14.22
2023-04-18T03:57:40.237Z,14.46
2023-04-18T04:02:46.662Z,14.66
2023-04-18T04:07:54.932Z,14.81
2023-04-18T04:12:58.054Z,14.89
2023-04-18T04:18:00.528Z,14.87
2023-04-18T04:23:03.404Z,14.87
2023-04-18T04:28:08.259Z,14.82
2023-04-18T04:33:25.195Z,14.92
2023-04-18T04:38:31.151Z,14.98
2023-04-18T04:43:34.326Z,15.07
2023-04-18T04:48:36.677Z,14.98
2023-04-18T04:53:39.415Z,15.12
2023-04-18T04:58:42.228Z,15.16
2023-04-18T05:03:52.866Z,15.18
2023-04-18T05:08:56.854Z,15.25
2023-04-18T05:13:59.737Z,15.36
2023-04-18T05:19:01.844Z,15.45
2023-04-18T05:24:04.064Z,15.56
2023-04-18T05:29:06.061Z,16.22
2023-04-18T05:34:08.115Z,15.65
2023-04-18T05:39:10.237Z,15.73
2023-04-18T05:44:12.203Z,16.44
2023-04-18T05:49:14.769Z,15.88
2023-04-18T05:54:17.308Z,15.75
2023-04-18T05:59:20.668Z,15.76
2023-04-18T06:04:22.895Z,15.71
2023-04-18T06:09:25.115Z,15.62
2023-04-18T06:14:28.058Z,15.57
2023-04-18T06:19:30.209Z,15.66
2023-04-18T06:24:32.411Z,16.58
2023-04-18T06:29:36.157Z,18.68
2023-04-18T06:34:40.706Z,20.62
2023-04-18T06:39:42.900Z,21.44
2023-04-18T06:44:45.120Z,21.46
2023-04-18T06:49:47.318Z,21.04
2023-04-18T06:54:49.508Z,20.40
2023-04-18T06:59:51.836Z,20.35
2023-04-18T07:04:54.110Z,20.57
2023-04-18T07:09:56.284Z,20.74
2023-04-18T07:14:58.514Z,20.35
2023-04-18T07:20:00.904Z,20.10
2023-04-18T07:25:03.129Z,20.23
2023-04-18T07:30:06.863Z,20.33
2023-04-18T07:35:10.143Z,20.29
2023-04-18T07:40:12.857Z,20.38
2023-04-18T07:45:15.645Z,20.49
2023-04-18T07:50:17.936Z,20.74
2023-04-18T07:55:20.139Z,21.06
2023-04-18T08:00:22.449Z,21.60
2023-04-18T08:05:24.676Z,22.39
2023-04-18T08:10:27.093Z,23.16
2023-04-18T08:15:29.329Z,23.84
2023-04-18T08:20:31.640Z,25.58
2023-04-18T08:25:33.837Z,26.14
2023-04-18T08:30:36.062Z,26.00
2023-04-18T08:35:38.104Z,24.99
2023-04-18T08:40:40.341Z,23.87
2023-04-18T08:45:44.477Z,22.96
2023-04-18T08:50:47.825Z,22.43
2023-04-18T08:55:57.335Z,22.24
2023-04-18T09:00:59.584Z,21.48
2023-04-18T09:06:09.598Z,21.30
2023-04-18T09:11:29.553Z,20.99
2023-04-18T09:16:47.057Z,20.70
2023-04-18T09:22:00.229Z,20.16
2023-04-18T09:27:04.202Z,19.78
2023-04-18T09:32:06.490Z,19.72
2023-04-18T09:37:13.365Z,19.89
2023-04-18T09:42:15.514Z,19.71
2023-04-18T09:47:17.571Z,19.58
2023-04-18T09:52:20.889Z,19.46
2023-04-18T09:57:27.820Z,19.56
2023-04-18T10:02:38.820Z,19.72
2023-04-18T10:07:44.046Z,20.09
2023-04-18T10:12:48.385Z,20.63
2023-04-18T10:18:05.136Z,21.22
2023-04-18T10:23:32.664Z,21.58
2023-04-18T10:28:55.104Z,21.74
2023-04-18T10:39:25.619Z,21.97
2023-04-18T10:44:28.057Z,21.52
2023-04-18T10:49:33.067Z,21.47
2023-04-18T10:54:42.746Z,21.33
2023-04-18T10:59:51.229Z,21.19
2023-04-18T11:04:55.046Z,20.73
2023-04-18T11:09:57.311Z,20.44
2023-04-18T11:15:01.646Z,19.98
2023-04-18T11:20:11.778Z,19.64
2023-04-18T11:25:14.776Z,19.46
2023-04-18T11:30:17.574Z,19.48
2023-04-18T11:35:19.936Z,19.58
2023-04-18T11:40:22.080Z,19.81
2023-04-18T11:45:24.201Z,20.31
2023-04-18T11:50:26.932Z,20.49
2023-04-18T11:55:29.320Z,20.68
2023-04-18T12:00:39.305Z,20.95
2023-04-18T12:05:42.526Z,20.73
2023-04-18T12:10:52.727Z,21.02
2023-04-18T12:15:55.013Z,20.59
2023-04-18T12:20:58.769Z,20.67
2023-04-18T12:26:05.864Z,20.85
2023-04-18T12:31:08.182Z,21.01
2023-04-18T12:36:10.581Z,21.20
2023-04-18T12:41:13.410Z,21.89
2023-04-18T12:46:15.678Z,22.42
2023-04-18T12:51:17.937Z,22.82
2023-04-18T12:56:21.168Z,22.33
2023-04-18T13:01:23.402Z,21.59
2023-04-18T13:06:26.026Z,21.04
2023-04-18T13:11:29.184Z,20.62
2023-04-18T13:16:31.654Z,20.65
2023-04-18T13:21:34.050Z,20.69
2023-04-18T13:26:37.648Z,20.64
2023-04-18T13:31:39.938Z,20.33
2023-04-18T13:36:42.265Z,20.11
2023-04-18T13:41:45.015Z,19.94
2023-04-18T13:46:47.358Z,19.74
2023-04-18T13:51:57.659Z,19.66
2023-04-18T13:57:04.590Z,19.24
2023-04-18T14:02:10.651Z,18.84
2023-04-18T14:07:13.247Z,18.40
2023-04-18T14:12:15.466Z,18.25
2023-04-18T14:17:17.698Z,18.02
2023-04-18T14:22:19.919Z,17.97
2023-04-18T14:27:22.039Z,18.00
2023-04-18T14:32:24.251Z,17.97
2023-04-18T14:37:26.574Z,17.82
2023-04-18T14:42:28.788Z,17.71
2023-04-18T14:47:34.381Z,17.48
2023-04-18T14:52:36.521Z,17.18
2023-04-18T14:57:39.116Z,16.88
2023-04-18T15:02:42.050Z,16.82
2023-04-18T15:07:45.223Z,16.66
2023-04-18T15:12:47.493Z,16.59
2023-04-18T15:17:49.833Z,16.59
2023-04-18T15:22:52.010Z,16.54
2023-04-18T15:27:54.684Z,16.55
2023-04-18T15:32:57.319Z,16.51
2023-04-18T15:37:59.555Z,16.34
2023-04-18T15:43:01.955Z,16.31
2023-04-18T15:48:04.278Z,16.19
2023-04-18T15:53:06.826Z,16.06
2023-04-18T15:58:09.035Z,15.93
2023-04-18T16:03:11.432Z,15.76
2023-04-18T16:08:13.750Z,15.71
2023-04-18T16:13:16.231Z,15.64
2023-04-18T16:18:18.376Z,15.57
2023-04-18T16:23:20.681Z,15.48
2023-04-18T16:28:22.838Z,15.38
2023-04-18T16:33:26.184Z,15.28
2023-04-18T16:38:28.688Z,15.18
2023-04-18T16:43:31.177Z,15.11
2023-04-18T16:48:33.362Z,15.08
2023-04-18T16:53:36.164Z,14.98
2023-04-18T16:58:38.343Z,14.89
2023-04-18T17:03:40.401Z,15.38
2023-04-18T17:08:44.157Z,14.87
2023-04-18T17:13:46.648Z,14.72
2023-04-18T17:18:48.843Z,14.77
2023-04-18T17:23:51.146Z,14.74
2023-04-18T17:28:53.579Z,14.71
2023-04-18T17:33:56.370Z,14.67
2023-04-18T17:39:08.201Z,14.65
2023-04-18T17:44:10.544Z,14.64
2023-04-18T17:49:13.850Z,14.60
2023-04-18T17:54:16.540Z,14.57
2023-04-18T17:59:18.711Z,14.54
2023-04-18T18:04:24.804Z,14.51
2023-04-18T18:09:28.619Z,14.46
2023-04-18T18:14:30.680Z,14.95
2023-04-18T18:19:35.461Z,14.50
2023-04-18T18:24:37.526Z,14.34
2023-04-18T18:29:39.689Z,14.28
2023-04-18T18:34:41.640Z,14.76
2023-04-18T18:39:43.727Z,14.29
2023-04-18T18:44:46.020Z,14.20
2023-04-18T18:49:48.858Z,14.14
2023-04-18T18:54:51.160Z,14.10
2023-04-18T18:59:55.219Z,14.00
2023-04-18T19:04:58.086Z,14.00
2023-04-18T19:10:01.788Z,14.00
2023-04-18T19:15:08.590Z,13.95
2023-04-18T19:20:11.222Z,13.88
2023-04-18T19:25:13.288Z,13.85
2023-04-18T19:30:15.557Z,14.29
2023-04-18T19:35:17.669Z,13.74
2023-04-18T19:40:19.940Z,13.62
2023-04-18T19:45:22.891Z,13.52
2023-04-18T19:50:25.109Z,13.47
2023-04-18T19:55:27.282Z,13.43
2023-04-18T20:00:29.504Z,13.37
2023-04-18T20:05:31.858Z,13.32
2023-04-18T20:10:34.640Z,13.26
2023-04-18T20:15:36.838Z,13.21
2023-04-18T20:20:39.029Z,13.18
2023-04-18T20:25:41.666Z,13.11
2023-04-18T20:30:44.871Z,13.09
2023-04-18T20:35:47.086Z,13.07
2023-04-18T20:40:52.869Z,13.53
2023-04-18T20:45:57.910Z,13.04
2023-04-18T20:51:00.401Z,12.97
2023-04-18T20:56:05.281Z,12.93
2023-04-18T21:01:07.673Z,12.86
2023-04-18T21:06:09.989Z,12.80
2023-04-18T21:11:12.142Z,12.72
2023-04-18T21:16:14.096Z,13.16
2023-04-18T21:21:16.162Z,12.66
2023-04-18T21:26:18.991Z,12.58
2023-04-18T21:31:21.119Z,12.50
2023-04-18T21:36:24.722Z,12.45
2023-04-18T21:41:27.233Z,12.38
2023-04-18T21:46:29.578Z,12.35
2023-04-18T21:51:32.172Z,12.27
2023-04-18T21:56:34.472Z,12.26
2023-04-18T22:01:38.458Z,12.24
2023-04-18T22:06:41.633Z,12.21
2023-04-18T22:11:43.733Z,12.12
2023-04-18T22:16:46.052Z,12.04
2023-04-18T22:21:48.240Z,12.01
2023-04-18T22:26:50.547Z,11.95
2023-04-18T22:31:52.748Z,11.90
2023-04-18T22:36:54.660Z,12.32
2023-04-18T22:41:56.924Z,11.88
2023-04-18T22:46:59.083Z,11.74
2023-04-18T22:52:01.329Z,12.21
2023-04-18T22:57:03.524Z,11.74
2023-04-18T23:02:05.853Z,11.65
2023-04-18T23:07:09.187Z,11.60
2023-04-18T23:12:11.321Z,11.59
2023-04-18T23:17:13.525Z,11.55
2023-04-18T23:22:15.725Z,11.51
2023-04-18T23:27:18.994Z,11.50
2023-04-18T23:32:21.399Z,11.46
2023-04-18T23:37:23.557Z,11.46
2023-04-18T23:42:25.609Z,11.93
2023-04-18T23:47:28.106Z,11.48
2023-04-18T23:52:30.239Z,11.43
2023-04-18T23:57:32.511Z,11.37
